Time;durP1;ratioP1;P1;durP2;ratioP2;P2;SDS_P1;SDS_P2;PMS_P1;PMS_P2;Temp;Humidity;BMP_temperature;BMP_pressure;BME280_temperature;BME280_humidity;BME280_pressure;Samples;Min_cycle;Max_cycle;Signal;HPM_P1;HPM_P2
2023/10/18 00:01:26;;;;;;;0.20;0.20;;;7.60;82.20;;;;;;5048606;28;20142;-67
2023/10/18 00:03:56;;;;;;;0.00;0.00;;;7.60;82.20;;;;;;5039785;28;20037;-67
2023/10/18 00:06:22;;;;;;;0.00;0.00;;;7.60;82.10;;;;;;5035372;28;20051;-67
2023/10/18 00:08:57;;;;;;;0.10;0.10;;;7.60;82.30;;;;;;5032174;28;20428;-67
2023/10/18 00:11:25;;;;;;;0.00;0.00;;;7.50;82.40;;;;;;5033881;28;20057;-67
2023/10/18 00:13:51;;;;;;;0.10;0.10;;;7.50;82.30;;;;;;5041870;28;20060;-67
2023/10/18 00:16:17;;;;;;;0.00;0.00;;;7.50;82.40;;;;;;5049004;28;20366;-66
2023/10/18 00:18:43;;;;;;;0.00;0.00;;;7.50;82.40;;;;;;5039854;28;20043;-66
2023/10/18 00:21:08;;;;;;;0.00;0.00;;;7.50;82.30;;;;;;5036265;28;20683;-67
2023/10/18 00:23:34;;;;;;;0.00;0.00;;;7.50;82.20;;;;;;5033036;28;20127;-66
2023/10/18 00:26:07;;;;;;;0.00;0.00;;;7.50;82.30;;;;;;5033573;28;20040;-67
2023/10/18 00:28:36;;;;;;;0.00;0.00;;;7.50;82.40;;;;;;5049210;28;20052;-68
2023/10/18 00:31:20;;;;;;;0.10;0.10;;;7.40;82.50;;;;;;5031904;28;20045;-67
2023/10/18 00:33:47;;;;;;;0.25;0.25;;;7.40;82.40;;;;;;5032212;28;20041;-67
2023/10/18 00:36:16;;;;;;;0.00;0.00;;;7.40;82.40;;;;;;5047722;28;20037;-67
2023/10/18 00:38:43;;;;;;;0.00;0.00;;;7.30;82.40;;;;;;5038471;28;20049;-67
2023/10/18 00:41:14;;;;;;;0.00;0.00;;;7.30;82.30;;;;;;5041975;28;20429;-67
2023/10/18 00:43:44;;;;;;;0.00;0.00;;;7.20;82.50;;;;;;5048367;28;20045;-67
2023/10/18 00:46:10;;;;;;;0.00;0.00;;;7.20;82.60;;;;;;5038507;28;20049;-67
2023/10/18 00:48:36;;;;;;;0.03;0.03;;;7.20;82.70;;;;;;5036690;28;20041;-67
2023/10/18 00:51:03;;;;;;;0.00;0.00;;;7.10;82.90;;;;;;5049898;28;20040;-67
2023/10/18 00:53:33;;;;;;;0.00;0.00;;;7.10;82.80;;;;;;5051300;28;20052;-67
2023/10/18 00:55:59;;;;;;;0.00;0.00;;;7.10;82.80;;;;;;5043310;28;20087;-67
2023/10/18 00:58:29;;;;;;;0.00;0.00;;;7.10;82.80;;;;;;5049695;28;20489;-67
2023/10/18 01:00:56;;;;;;;0.00;0.00;;;7.10;82.80;;;;;;5035672;28;20053;-67
2023/10/18 01:03:29;;;;;;;0.00;0.00;;;7.10;83.00;;;;;;5034536;28;20037;-67
2023/10/18 01:06:16;;;;;;;0.00;0.00;;;7.10;83.00;;;;;;5032674;28;20068;-67
2023/10/18 01:08:44;;;;;;;0.00;0.00;;;7.10;83.30;;;;;;5035553;28;20045;-67
2023/10/18 01:11:11;;;;;;;0.00;0.00;;;7.10;83.00;;;;;;5034753;28;20069;-67
2023/10/18 01:13:42;;;;;;;0.00;0.00;;;7.10;83.20;;;;;;5031335;28;20468;-67
2023/10/18 01:16:15;;;;;;;0.00;0.00;;;7.10;83.30;;;;;;5038145;28;20048;-67
2023/10/18 01:18:47;;;;;;;0.00;0.00;;;7.10;83.30;;;;;;5036755;28;20049;-67
2023/10/18 01:21:20;;;;;;;;;;;7.20;83.20;;;;;;5033987;28;20049;-67
2023/10/18 01:23:51;;;;;;;0.00;0.00;;;7.20;83.20;;;;;;5030872;28;19956;-67
2023/10/18 01:26:21;;;;;;;0.00;0.00;;;7.10;83.00;;;;;;5034480;28;20409;-67
2023/10/18 01:28:48;;;;;;;0.05;0.05;;;7.10;83.10;;;;;;5031578;28;20045;-67
2023/10/18 01:31:14;;;;;;;0.00;0.00;;;7.10;83.10;;;;;;5042798;28;20501;-67
2023/10/18 01:33:43;;;;;;;0.00;0.00;;;7.10;83.20;;;;;;5050715;28;20757;-67
2023/10/18 01:36:13;;;;;;;0.90;0.90;;;7.10;83.30;;;;;;5036560;28;20045;-67
2023/10/18 01:38:42;;;;;;;0.00;0.00;;;7.10;83.60;;;;;;5030946;28;20084;-67
2023/10/18 01:41:09;;;;;;;0.00;0.00;;;7.10;83.90;;;;;;5031514;28;20128;-67
2023/10/18 01:43:36;;;;;;;0.00;0.00;;;7.00;83.80;;;;;;5030952;28;20038;-67
2023/10/18 01:46:08;;;;;;;0.10;0.10;;;7.00;83.90;;;;;;5041814;28;20056;-67
2023/10/18 01:48:37;;;;;;;0.00;0.00;;;7.10;83.90;;;;;;5047175;28;20098;-67
2023/10/18 01:51:09;;;;;;;0.10;0.10;;;7.10;83.80;;;;;;5032836;28;20049;-67
2023/10/18 01:53:37;;;;;;;0.00;0.00;;;7.10;83.70;;;;;;5030781;28;20509;-67
2023/10/18 01:56:03;;;;;;;0.00;0.00;;;7.10;83.80;;;;;;5033382;28;20120;-67
2023/10/18 01:58:30;;;;;;;0.00;0.00;;;7.10;84.00;;;;;;5032328;28;20041;-67
2023/10/18 02:00:56;;;;;;;0.00;0.00;;;7.10;84.10;;;;;;5040208;28;20049;-67
2023/10/18 02:03:23;;;;;;;0.28;0.28;;;7.00;84.30;;;;;;5049830;28;20060;-68
2023/10/18 02:05:49;;;;;;;0.00;0.00;;;7.00;84.20;;;;;;5037176;28;20045;-67
2023/10/18 02:08:15;;;;;;;0.10;0.10;;;7.00;84.10;;;;;;5039288;28;20059;-67
2023/10/18 02:10:42;;;;;;;0.13;0.13;;;7.00;84.00;;;;;;5046007;28;20057;-67
2023/10/18 02:13:13;;;;;;;0.00;0.00;;;7.00;84.10;;;;;;5031155;28;20075;-67
2023/10/18 02:15:39;;;;;;;0.00;0.00;;;7.00;84.40;;;;;;5039135;28;20040;-68
2023/10/18 02:18:07;;;;;;;0.00;0.00;;;7.00;84.30;;;;;;5050016;28;20037;-67
2023/10/18 02:20:35;;;;;;;0.00;0.00;;;7.00;84.30;;;;;;5049424;28;20531;-67
2023/10/18 02:23:01;;;;;;;0.10;0.10;;;7.00;84.60;;;;;;5050092;28;20068;-67
2023/10/18 02:28:07;;;;;;;0.10;0.10;;;7.00;84.40;;;;;;5035030;28;20052;-67
2023/10/18 02:30:34;;;;;;;0.20;0.20;;;7.00;84.10;;;;;;5032101;28;20414;-67
2023/10/18 02:33:01;;;;;;;0.00;0.00;;;7.00;84.00;;;;;;5030109;28;20065;-67
2023/10/18 02:35:27;;;;;;;0.00;0.00;;;7.00;84.50;;;;;;5038798;28;20102;-67
2023/10/18 02:37:53;;;;;;;0.03;0.03;;;6.90;84.70;;;;;;5029988;28;20038;-67
2023/10/18 02:40:30;;;;;;;0.00;0.00;;;6.90;85.00;;;;;;5028194;28;20041;-67
2023/10/18 02:42:58;;;;;;;0.00;0.00;;;6.90;85.00;;;;;;5034127;28;20041;-67
2023/10/18 02:45:24;;;;;;;0.00;0.00;;;6.90;84.90;;;;;;5032118;28;20129;-67
2023/10/18 02:47:53;;;;;;;0.10;0.10;;;6.90;84.80;;;;;;5031105;28;20048;-67
2023/10/18 02:50:21;;;;;;;1.10;0.90;;;6.80;85.10;;;;;;5029553;28;20403;-67
2023/10/18 02:52:46;;;;;;;0.00;0.00;;;6.80;85.20;;;;;;5033317;28;20048;-67
2023/10/18 02:55:13;;;;;;;0.22;0.22;;;6.80;85.20;;;;;;5037198;28;20094;-67
2023/10/18 02:57:42;;;;;;;0.00;0.00;;;6.70;85.30;;;;;;5035994;28;20041;-67
2023/10/18 03:00:11;;;;;;;0.00;0.00;;;6.70;85.40;;;;;;5029589;28;20046;-67
2023/10/18 03:02:38;;;;;;;0.10;0.10;;;6.70;85.30;;;;;;5037586;28;20049;-67
2023/10/18 03:05:06;;;;;;;0.00;0.00;;;6.70;85.30;;;;;;5045363;28;20549;-67
2023/10/18 03:07:32;;;;;;;0.10;0.10;;;6.70;85.30;;;;;;5036996;28;20509;-67
2023/10/18 03:10:03;;;;;;;0.00;0.00;;;6.70;85.20;;;;;;5034941;28;20064;-67
2023/10/18 03:12:29;;;;;;;0.10;0.10;;;6.70;85.10;;;;;;5035466;28;20041;-67
2023/10/18 03:14:54;;;;;;;0.00;0.00;;;6.70;85.00;;;;;;5034748;28;20045;-67
2023/10/18 03:17:24;;;;;;;0.05;0.05;;;6.70;85.00;;;;;;5044599;28;20465;-67
2023/10/18 03:19:56;;;;;;;0.00;0.00;;;6.70;85.10;;;;;;5049157;28;20056;-67
2023/10/18 03:22:26;;;;;;;0.00;0.00;;;6.70;85.20;;;;;;5044289;28;20083;-67
2023/10/18 03:24:54;;;;;;;0.00;0.00;;;6.60;85.30;;;;;;5046900;28;20053;-67
2023/10/18 03:27:20;;;;;;;0.00;0.00;;;6.60;85.40;;;;;;5042562;28;20521;-67
2023/10/18 03:29:45;;;;;;;0.00;0.00;;;6.70;85.40;;;;;;5028850;28;20057;-67
2023/10/18 03:32:15;;;;;;;0.10;0.10;;;6.80;85.40;;;;;;5031298;28;20567;-67
2023/10/18 03:34:44;;;;;;;0.00;0.00;;;6.80;85.30;;;;;;5033357;28;20045;-67
2023/10/18 03:37:18;;;;;;;0.00;0.00;;;6.90;85.20;;;;;;5035129;28;20080;-67
2023/10/18 03:39:47;;;;;;;0.00;0.00;;;6.80;85.20;;;;;;5045039;28;20056;-68
2023/10/18 03:42:26;;;;;;;1.75;0.75;;;6.80;85.20;;;;;;5045955;28;20070;-67
2023/10/18 03:44:52;;;;;;;0.00;0.00;;;6.80;85.10;;;;;;5029148;28;20487;-67
2023/10/18 03:47:24;;;;;;;0.40;0.40;;;6.70;85.10;;;;;;5029573;28;20124;-67
2023/10/18 03:49:53;;;;;;;0.00;0.00;;;6.70;85.10;;;;;;5036450;28;20041;-67
2023/10/18 03:52:21;;;;;;;0.10;0.10;;;6.70;85.30;;;;;;5036707;28;20048;-66
2023/10/18 03:54:57;;;;;;;0.00;0.00;;;6.70;85.30;;;;;;5042591;28;20515;-67
2023/10/18 03:57:30;;;;;;;0.00;0.00;;;6.70;85.30;;;;;;5045829;28;20048;-66
2023/10/18 03:59:58;;;;;;;3.40;0.75;;;6.70;85.30;;;;;;5052862;28;20053;-67
2023/10/18 04:04:58;;;;;;;0.00;0.00;;;6.60;85.40;;;;;;5038894;28;20474;-67
2023/10/18 04:07:26;;;;;;;0.00;0.00;;;6.60;85.50;;;;;;5038282;28;20119;-67
2023/10/18 04:09:53;;;;;;;0.00;0.00;;;6.60;85.50;;;;;;5040682;28;20413;-68
2023/10/18 04:12:22;;;;;;;0.00;0.00;;;6.60;85.40;;;;;;5033649;28;20092;-67
2023/10/18 04:14:58;;;;;;;0.40;0.40;;;6.60;85.50;;;;;;5032815;28;20045;-67
2023/10/18 04:22:42;;;;;;;0.00;0.00;;;6.50;85.20;;;;;;5052218;28;20048;-68
2023/10/18 04:25:17;;;;;;;0.00;0.00;;;6.50;85.30;;;;;;5052308;28;20084;-68
2023/10/18 04:27:44;;;;;;;0.08;0.08;;;6.60;85.30;;;;;;5051674;28;20413;-67
2023/10/18 04:30:16;;;;;;;0.00;0.00;;;6.60;85.30;;;;;;5031833;28;20060;-67
2023/10/18 04:32:42;;;;;;;0.08;0.08;;;6.60;85.20;;;;;;5032347;28;20056;-68
2023/10/18 04:35:17;;;;;;;0.00;0.00;;;6.60;85.30;;;;;;5031871;28;20055;-68
2023/10/18 04:37:43;;;;;;;0.00;0.00;;;6.60;85.20;;;;;;5032446;28;20103;-67
2023/10/18 04:40:22;;;;;;;0.00;0.00;;;6.70;85.20;;;;;;5043824;28;20071;-67
2023/10/18 04:42:51;;;;;;;0.00;0.00;;;6.70;85.10;;;;;;5043242;28;20139;-67
2023/10/18 04:45:18;;;;;;;0.00;0.00;;;6.70;85.10;;;;;;5045884;28;20780;-67
2023/10/18 04:47:47;;;;;;;0.10;0.10;;;6.70;85.10;;;;;;5051929;28;20098;-68
2023/10/18 04:50:18;;;;;;;0.00;0.00;;;6.70;85.20;;;;;;5038388;28;20520;-68
2023/10/18 04:52:47;;;;;;;0.00;0.00;;;6.70;85.10;;;;;;5031913;28;20069;-67
2023/10/18 04:55:14;;;;;;;0.00;0.00;;;6.70;85.00;;;;;;5031895;28;20077;-67
2023/10/18 04:57:40;;;;;;;0.10;0.10;;;6.60;85.10;;;;;;5031663;28;20045;-68
2023/10/18 05:00:24;;;;;;;0.00;0.00;;;6.70;84.90;;;;;;5031536;28;20037;-67
2023/10/18 05:02:58;;;;;;;0.00;0.00;;;6.60;84.90;;;;;;5031700;28;20038;-67
2023/10/18 05:05:27;;;;;;;0.00;0.00;;;6.60;84.80;;;;;;5031483;28;20045;-68
2023/10/18 05:07:54;;;;;;;0.10;0.10;;;6.60;85.00;;;;;;5031599;28;20038;-68
2023/10/18 05:10:21;;;;;;;0.00;0.00;;;6.60;84.90;;;;;;5031442;28;20108;-68
2023/10/18 05:13:02;;;;;;;0.13;0.13;;;6.60;85.10;;;;;;5031283;28;20050;-67
2023/10/18 05:15:32;;;;;;;0.00;0.00;;;6.60;85.20;;;;;;5031381;28;20171;-67
2023/10/18 05:23:32;;;;;;;0.00;0.00;;;6.60;85.00;;;;;;5030791;28;20052;-67
2023/10/18 05:26:08;;;;;;;0.00;0.00;;;6.60;85.00;;;;;;5029823;28;20597;-67
2023/10/18 05:28:52;;;;;;;0.38;0.38;;;6.60;85.10;;;;;;5031232;28;20041;-67
2023/10/18 05:31:27;;;;;;;0.30;0.30;;;6.60;85.00;;;;;;5030454;28;20079;-68
2023/10/18 05:34:04;;;;;;;1.00;0.68;;;6.60;85.10;;;;;;5036171;28;20099;-67
2023/10/18 05:36:35;;;;;;;2.40;0.90;;;6.60;85.20;;;;;;5031365;28;20501;-68
2023/10/18 05:41:48;;;;;;;0.00;0.00;;;6.60;85.20;;;;;;5030556;28;20057;-68
2023/10/18 05:44:13;;;;;;;0.10;0.10;;;6.60;85.20;;;;;;5030884;28;20094;-68
2023/10/18 05:46:39;;;;;;;0.10;0.10;;;6.60;85.30;;;;;;5031273;28;20111;-68
2023/10/18 05:49:15;;;;;;;0.00;0.00;;;6.60;85.30;;;;;;5030299;28;20083;-68
2023/10/18 05:51:53;;;;;;;0.00;0.00;;;6.60;85.20;;;;;;5030046;28;20049;-67
2023/10/18 05:54:22;;;;;;;0.10;0.10;;;6.60;85.20;;;;;;5029671;28;20037;-67
2023/10/18 05:56:51;;;;;;;0.00;0.00;;;6.60;85.10;;;;;;5029530;28;20049;-67
2023/10/18 06:01:46;;;;;;;0.00;0.00;;;6.60;85.20;;;;;;5029857;28;20498;-68
2023/10/18 06:04:13;;;;;;;0.17;0.17;;;6.60;85.10;;;;;;5032115;28;20090;-68
2023/10/18 06:06:39;;;;;;;0.00;0.00;;;6.60;85.10;;;;;;5048563;28;20048;-68
2023/10/18 06:09:10;;;;;;;0.10;0.10;;;6.70;85.20;;;;;;5048652;28;20068;-68
2023/10/18 06:11:36;;;;;;;0.00;0.00;;;6.60;85.20;;;;;;5042871;28;20417;-68
2023/10/18 06:14:05;;;;;;;0.05;0.05;;;6.60;85.30;;;;;;5044022;28;20119;-68
2023/10/18 06:16:34;;;;;;;0.00;0.00;;;6.60;85.50;;;;;;5032986;28;20436;-68
2023/10/18 06:19:06;;;;;;;0.00;0.00;;;6.60;85.50;;;;;;5029839;28;20116;-68
2023/10/18 06:21:46;;;;;;;0.20;0.20;;;6.60;85.60;;;;;;5031198;28;20067;-67
2023/10/18 06:24:12;;;;;;;0.73;0.73;;;6.60;85.60;;;;;;5029730;28;20056;-68
2023/10/18 06:26:42;;;;;;;0.10;0.10;;;6.60;85.50;;;;;;5029310;28;20041;-68
2023/10/18 06:29:22;;;;;;;0.00;0.00;;;6.60;85.50;;;;;;5033762;28;20509;-68
2023/10/18 06:31:49;;;;;;;0.00;0.00;;;6.60;85.50;;;;;;5047483;28;20712;-68
2023/10/18 06:34:17;;;;;;;0.10;0.10;;;6.60;85.50;;;;;;5039956;28;20098;-68
2023/10/18 06:36:49;;;;;;;0.32;0.32;;;6.60;85.50;;;;;;5047856;28;20046;-68
2023/10/18 06:39:38;;;;;;;0.00;0.00;;;6.70;85.50;;;;;;5036112;28;20040;-68
2023/10/18 06:42:06;;;;;;;0.10;0.10;;;6.60;85.60;;;;;;5042939;28;20080;-68
2023/10/18 06:44:33;;;;;;;0.00;0.00;;;6.60;85.40;;;;;;5037505;28;20045;-68
2023/10/18 06:47:06;;;;;;;0.00;0.00;;;6.60;85.40;;;;;;5029244;28;20096;-67
2023/10/18 06:49:32;;;;;;;0.30;0.30;;;6.60;85.30;;;;;;5018260;28;20055;-66
2023/10/18 06:51:57;;;;;;;0.00;0.00;;;6.60;85.40;;;;;;5028915;28;20409;-66
2023/10/18 06:54:32;;;;;;;0.85;0.85;;;6.60;85.20;;;;;;5032564;28;20044;-66
2023/10/18 06:57:15;;;;;;;0.00;0.00;;;6.60;85.40;;;;;;5029604;28;20046;-67
2023/10/18 06:59:47;;;;;;;0.10;0.10;;;6.70;85.30;;;;;;5029551;28;20049;-67
2023/10/18 07:02:14;;;;;;;0.00;0.00;;;6.70;85.40;;;;;;5029279;28;20534;-67
2023/10/18 07:04:48;;;;;;;0.45;0.45;;;6.70;85.50;;;;;;5029129;28;20488;-67
2023/10/18 07:07:19;;;;;;;0.00;0.00;;;6.80;85.50;;;;;;5033855;28;20037;-67
2023/10/18 07:09:47;;;;;;;0.10;0.10;;;6.80;85.50;;;;;;5033933;28;20456;-68
2023/10/18 07:12:17;;;;;;;0.05;0.05;;;6.90;85.50;;;;;;5034727;28;20044;-67
2023/10/18 07:14:43;;;;;;;0.00;0.00;;;7.00;85.40;;;;;;5036332;28;20067;-66
2023/10/18 07:17:13;;;;;;;0.08;0.08;;;7.00;85.50;;;;;;5033488;28;20049;-67
2023/10/18 07:19:48;;;;;;;0.00;0.00;;;7.00;85.40;;;;;;5041040;28;20117;-66
2023/10/18 07:22:18;;;;;;;0.00;0.00;;;7.00;85.20;;;;;;5030163;28;20049;-66
2023/10/18 07:24:47;;;;;;;0.08;0.08;;;7.00;85.30;;;;;;5046197;28;20052;-67
2023/10/18 07:27:15;;;;;;;0.00;0.00;;;7.00;85.30;;;;;;5052955;28;20813;-66
2023/10/18 07:29:46;;;;;;;0.00;0.00;;;7.10;85.20;;;;;;5042849;28;20406;-66
2023/10/18 07:32:12;;;;;;;0.00;0.00;;;7.10;85.30;;;;;;5030838;28;20088;-66
2023/10/18 07:34:38;;;;;;;0.00;0.00;;;7.10;85.20;;;;;;5032581;28;20041;-66
2023/10/18 07:37:24;;;;;;;0.00;0.00;;;7.20;85.20;;;;;;5033056;28;20485;-65
2023/10/18 07:39:56;;;;;;;0.00;0.00;;;7.20;85.20;;;;;;5044203;28;20052;-65
2023/10/18 07:42:26;;;;;;;0.00;0.00;;;7.30;85.20;;;;;;5052537;28;20485;-66
2023/10/18 07:44:54;;;;;;;0.00;0.00;;;7.30;85.10;;;;;;5049160;28;20057;-66
2023/10/18 07:47:25;;;;;;;0.00;0.00;;;7.40;85.00;;;;;;5032148;28;20048;-66
2023/10/18 07:49:58;;;;;;;0.00;0.00;;;7.40;85.00;;;;;;5044973;28;20120;-66
2023/10/18 07:52:23;;;;;;;0.00;0.00;;;7.50;84.90;;;;;;5032518;28;20041;-66
2023/10/18 07:54:49;;;;;;;0.00;0.00;;;7.50;84.90;;;;;;5043706;28;20473;-66
2023/10/18 07:57:18;;;;;;;0.10;0.10;;;7.60;84.70;;;;;;5050797;28;20090;-66
2023/10/18 07:59:46;;;;;;;0.20;0.20;;;7.60;84.40;;;;;;5035439;28;20099;-66
2023/10/18 08:02:26;;;;;;;0.10;0.10;;;7.70;84.40;;;;;;5032203;28;20046;-66
2023/10/18 08:04:52;;;;;;;0.00;0.00;;;7.70;84.30;;;;;;5032245;28;20099;-67
2023/10/18 08:07:22;;;;;;;0.00;0.00;;;7.80;84.20;;;;;;5032045;28;20450;-66
2023/10/18 08:09:48;;;;;;;0.00;0.00;;;7.80;84.20;;;;;;5032304;28;20046;-66
2023/10/18 08:12:33;;;;;;;0.00;0.00;;;7.90;83.90;;;;;;5032359;28;20042;-66
2023/10/18 08:14:59;;;;;;;0.05;0.05;;;7.90;84.00;;;;;;5032060;28;20793;-66
2023/10/18 08:17:43;;;;;;;0.20;0.20;;;7.90;83.80;;;;;;5031899;28;20063;-66
2023/10/18 08:22:50;;;;;;;0.00;0.00;;;7.90;83.40;;;;;;5043306;28;20408;-66
2023/10/18 08:25:31;;;;;;;1.17;1.17;;;8.00;83.10;;;;;;5042035;28;20509;-66
2023/10/18 08:27:58;;;;;;;0.00;0.00;;;8.00;83.10;;;;;;5051995;28;20559;-66
2023/10/18 08:30:24;;;;;;;0.00;0.00;;;8.00;83.10;;;;;;5049743;28;20516;-66
2023/10/18 08:32:53;;;;;;;0.95;0.95;;;8.10;83.10;;;;;;5052061;28;20160;-66
2023/10/18 08:35:21;;;;;;;0.00;0.00;;;8.10;83.10;;;;;;5035110;28;20080;-66
2023/10/18 08:37:47;;;;;;;0.00;0.00;;;8.10;83.10;;;;;;5030454;28;20592;-66
2023/10/18 08:40:36;;;;;;;0.60;0.60;;;8.10;82.80;;;;;;5045319;28;20127;-66
2023/10/18 08:43:15;;;;;;;0.00;0.00;;;8.10;82.80;;;;;;5029399;28;20042;-66
2023/10/18 08:45:47;;;;;;;0.00;0.00;;;8.10;82.70;;;;;;5031981;28;20042;-66
2023/10/18 08:48:16;;;;;;;0.00;0.00;;;8.20;82.80;;;;;;5032633;28;20080;-66
2023/10/18 08:50:42;;;;;;;1.20;1.10;;;8.30;82.70;;;;;;5031706;28;20050;-66
2023/10/18 08:53:09;;;;;;;3.50;1.20;;;8.30;82.40;;;;;;5031444;28;20076;-66
2023/10/18 08:55:44;;;;;;;0.00;0.00;;;8.40;82.50;;;;;;5014030;28;20049;-66
2023/10/18 08:58:20;;;;;;;0.22;0.22;;;8.50;82.50;;;;;;5031489;28;20052;-66
2023/10/18 09:01:02;;;;;;;0.00;0.00;;;8.50;82.00;;;;;;5041924;28;20075;-66
2023/10/18 09:03:28;;;;;;;0.00;0.00;;;8.60;82.10;;;;;;5037281;28;20433;-66
2023/10/18 09:06:05;;;;;;;0.30;0.30;;;8.60;81.80;;;;;;5041972;28;20505;-66
2023/10/18 09:08:35;;;;;;;0.00;0.00;;;8.60;81.80;;;;;;5044650;28;20401;-66
2023/10/18 09:11:09;;;;;;;0.00;0.00;;;8.60;81.70;;;;;;5037781;28;20056;-66
2023/10/18 09:13:41;;;;;;;0.00;0.00;;;8.70;81.50;;;;;;5031917;28;20405;-66
2023/10/18 09:16:11;;;;;;;1.20;0.95;;;8.70;81.70;;;;;;5033732;28;20652;-66
2023/10/18 09:18:37;;;;;;;0.00;0.00;;;8.80;81.60;;;;;;5035872;28;20052;-66
2023/10/18 09:21:17;;;;;;;0.00;0.00;;;8.80;81.50;;;;;;5041808;28;20029;-66
2023/10/18 09:23:43;;;;;;;0.00;0.00;;;8.80;81.40;;;;;;5038458;28;20076;-65
2023/10/18 09:26:10;;;;;;;0.00;0.00;;;8.90;81.50;;;;;;5046123;28;20053;-66
2023/10/18 09:28:37;;;;;;;0.20;0.20;;;9.00;81.40;;;;;;5050907;28;20033;-66
2023/10/18 09:31:11;;;;;;;0.00;0.00;;;9.00;81.00;;;;;;5050336;28;20065;-66
2023/10/18 09:33:38;;;;;;;0.15;0.15;;;9.10;81.10;;;;;;5050620;28;20504;-66
2023/10/18 09:36:19;;;;;;;0.00;0.00;;;9.10;81.00;;;;;;5050686;28;20037;-67
2023/10/18 09:38:47;;;;;;;0.00;0.00;;;9.20;80.80;;;;;;5050767;28;20045;-67
2023/10/18 09:41:13;;;;;;;0.10;0.10;;;9.20;80.60;;;;;;5050426;28;20516;-66
2023/10/18 09:43:38;;;;;;;0.00;0.00;;;9.30;80.60;;;;;;5050671;28;20037;-67
2023/10/18 09:46:05;;;;;;;0.73;0.73;;;9.30;80.50;;;;;;5049263;28;20550;-67
2023/10/18 09:48:32;;;;;;;0.15;0.15;;;9.40;80.30;;;;;;5032568;28;20041;-66
2023/10/18 09:51:09;;;;;;;0.55;0.35;;;9.50;80.10;;;;;;5050276;28;20444;-67
2023/10/18 09:53:43;;;;;;;1.45;1.17;;;9.50;79.90;;;;;;5050381;28;20397;-67
2023/10/18 09:56:13;;;;;;;0.05;0.05;;;9.50;79.60;;;;;;5050176;28;20116;-66
2023/10/18 09:58:47;;;;;;;0.40;0.30;;;9.60;79.70;;;;;;5050222;28;20547;-66
2023/10/18 10:02:16;;;;;;;0.20;0.20;;;9.60;79.10;;;;;;5049830;28;20041;-66
2023/10/18 10:04:13;;;;;;;0.00;0.00;;;9.60;79.40;;;;;;5040572;28;20053;-67
2023/10/18 10:06:46;;;;;;;0.00;0.00;;;9.70;79.30;;;;;;5050137;28;20095;-67
2023/10/18 10:09:13;;;;;;;0.03;0.03;;;9.70;79.10;;;;;;5049574;28;20045;-67
2023/10/18 10:11:46;;;;;;;0.03;0.03;;;9.80;78.50;;;;;;5045826;28;20456;-73
2023/10/18 10:14:18;;;;;;;0.00;0.00;;;9.80;78.60;;;;;;5041052;28;20322;-67
2023/10/18 10:16:57;;;;;;;0.80;0.80;;;10.50;83.80;;;;;;5045159;28;20044;-67
2023/10/18 10:19:29;;;;;;;0.00;0.00;;;10.60;79.60;;;;;;5039658;28;20080;-67
2023/10/18 10:22:04;;;;;;;0.00;0.00;;;10.60;78.80;;;;;;5049413;28;20041;-68
2023/10/18 10:24:51;;;;;;;0.00;0.00;;;10.60;78.50;;;;;;5049215;28;20126;-68
2023/10/18 10:30:03;;;;;;;0.00;0.00;;;10.60;77.70;;;;;;5045210;28;20049;-68
2023/10/18 10:32:32;;;;;;;;;;;10.60;76.90;;;;;;5032930;28;20045;-68
2023/10/18 10:35:14;;;;;;;0.00;0.00;;;10.60;77.40;;;;;;5031803;28;20069;-67
2023/10/18 10:37:49;;;;;;;0.10;0.10;;;10.60;76.20;;;;;;5047151;28;20053;-68
2023/10/18 10:43:03;;;;;;;0.32;0.32;;;10.60;76.40;;;;;;5029324;28;20633;-67
2023/10/18 10:45:38;;;;;;;0.10;0.10;;;10.60;76.60;;;;;;5027490;28;20056;-67
2023/10/18 10:51:11;;;;;;;0.00;0.00;;;10.80;76.30;;;;;;5028936;28;20154;-68
2023/10/18 10:54:01;;;;;;;0.00;0.00;;;10.80;76.30;;;;;;5028980;28;20124;-68
2023/10/18 10:56:26;;;;;;;0.00;0.00;;;10.80;75.80;;;;;;5028367;28;20083;-68
2023/10/18 11:01:39;;;;;;;0.00;0.00;;;10.90;76.00;;;;;;5027988;28;20037;-68
2023/10/18 11:04:24;;;;;;;0.00;0.00;;;11.00;75.70;;;;;;5029000;28;20132;-68
2023/10/18 11:06:56;;;;;;;2.63;0.52;;;11.00;75.80;;;;;;5038278;28;20137;-67
2023/10/18 11:09:34;;;;;;;0.00;0.00;;;11.00;76.20;;;;;;5048164;28;20045;-67
2023/10/18 11:12:07;;;;;;;0.00;0.00;;;11.00;75.00;;;;;;5031274;28;20525;-67
2023/10/18 11:14:35;;;;;;;0.20;0.20;;;11.00;75.00;;;;;;5037087;28;20040;-68
2023/10/18 11:19:44;;;;;;;0.10;0.10;;;11.10;75.20;;;;;;5046868;28;20045;-67
2023/10/18 11:22:11;;;;;;;0.00;0.00;;;11.10;75.20;;;;;;5033479;28;20047;-67
2023/10/18 11:24:39;;;;;;;0.00;0.00;;;11.10;75.10;;;;;;5032244;28;20042;-67
2023/10/18 11:27:09;;;;;;;0.00;0.00;;;11.10;74.50;;;;;;5043296;28;20048;-67
2023/10/18 11:29:39;;;;;;;0.00;0.00;;;11.20;74.70;;;;;;5035897;28;20037;-68
2023/10/18 11:32:15;;;;;;;0.20;0.20;;;11.10;74.30;;;;;;5029582;28;20053;-67
2023/10/18 11:34:43;;;;;;;0.00;0.00;;;11.20;74.80;;;;;;5028414;28;20050;-68
2023/10/18 11:37:09;;;;;;;3.20;0.90;;;11.20;74.60;;;;;;5028639;28;20041;-68
2023/10/18 11:39:36;;;;;;;0.00;0.00;;;11.30;74.70;;;;;;5041264;28;20055;-68
2023/10/18 11:42:02;;;;;;;0.00;0.00;;;11.20;73.20;;;;;;5033830;28;20049;-68
2023/10/18 11:44:31;;;;;;;0.70;0.60;;;11.30;74.00;;;;;;5037124;28;20059;-68
2023/10/18 11:47:19;;;;;;;0.22;0.22;;;11.30;74.60;;;;;;5047396;28;20049;-68
2023/10/18 11:49:48;;;;;;;0.00;0.00;;;11.40;73.90;;;;;;5048533;28;20122;-68
2023/10/18 11:52:21;;;;;;;0.90;0.65;;;11.40;74.30;;;;;;5048450;28;20045;-68
2023/10/18 11:54:51;;;;;;;0.20;0.20;;;11.50;74.30;;;;;;5047218;28;20049;-68
2023/10/18 11:57:29;;;;;;;1.35;1.20;;;11.50;73.00;;;;;;5030633;28;20049;-67
2023/10/18 12:00:25;;;;;;;0.93;0.93;;;11.50;73.60;;;;;;5028662;28;20037;-67
2023/10/18 12:02:45;;;;;;;0.00;0.00;;;11.50;73.80;;;;;;5028817;28;20490;-67
2023/10/18 12:05:14;;;;;;;0.00;0.00;;;11.50;73.60;;;;;;5028117;28;20116;-67
2023/10/18 12:07:44;;;;;;;0.00;0.00;;;11.60;73.60;;;;;;5028584;28;20048;-68
2023/10/18 12:10:37;;;;;;;2.53;0.40;;;11.60;72.90;;;;;;5031320;28;20056;-68
2023/10/18 12:13:06;;;;;;;;;;;11.60;73.10;;;;;;5032981;28;20117;-67
2023/10/18 12:15:32;;;;;;;0.00;0.00;;;11.60;73.10;;;;;;5051895;28;19921;-67
2023/10/18 12:18:01;;;;;;;0.22;0.22;;;11.60;73.70;;;;;;5039065;28;20068;-68
2023/10/18 12:20:34;;;;;;;0.17;0.17;;;11.70;74.10;;;;;;5038923;28;20089;-67
2023/10/18 12:23:04;;;;;;;0.85;0.85;;;11.60;73.90;;;;;;5040349;28;20510;-67
2023/10/18 12:25:32;;;;;;;0.05;0.05;;;11.70;74.20;;;;;;5043863;28;20780;-68
2023/10/18 12:28:00;;;;;;;0.00;0.00;;;11.80;73.90;;;;;;5041233;28;20083;-66
2023/10/18 12:30:35;;;;;;;0.38;0.38;;;11.80;73.60;;;;;;5040525;28;20056;-67
2023/10/18 12:33:05;;;;;;;0.88;0.80;;;11.80;73.00;;;;;;5041730;28;20083;-68
2023/10/18 12:35:31;;;;;;;0.30;0.30;;;11.90;73.20;;;;;;5049749;28;20425;-67
2023/10/18 12:37:57;;;;;;;0.10;0.10;;;12.00;72.30;;;;;;5051297;28;20045;-64
2023/10/18 12:40:40;;;;;;;0.10;0.10;;;12.10;71.60;;;;;;5042144;28;20045;-66
2023/10/18 12:43:17;;;;;;;0.35;0.25;;;12.10;72.30;;;;;;5030213;28;20053;-66
2023/10/18 12:45:45;;;;;;;0.08;0.08;;;12.20;72.80;;;;;;5041960;28;20037;-66
2023/10/18 12:48:13;;;;;;;0.10;0.10;;;12.40;72.90;;;;;;5050905;28;20519;-66
2023/10/18 12:50:45;;;;;;;0.08;0.08;;;12.40;72.80;;;;;;5039417;28;20073;-66
2023/10/18 12:53:47;;;;;;;0.03;0.03;;;12.60;72.50;;;;;;5030704;28;20057;-66
2023/10/18 12:59:52;;;;;;;0.85;0.45;;;12.60;68.10;;;;;;5030482;28;20417;-66
2023/10/18 13:04:07;;;;;;;0.05;0.05;;;12.60;69.00;;;;;;5050423;28;20119;-65
2023/10/18 13:06:43;;;;;;;0.00;0.00;;;12.70;70.10;;;;;;5049468;28;20676;-66
2023/10/18 13:14:07;;;;;;;0.00;0.00;;;12.70;69.60;;;;;;5041304;28;20049;-65
2023/10/18 13:16:33;;;;;;;0.43;0.40;;;12.80;70.10;;;;;;5030445;28;20041;-66
2023/10/18 13:18:59;;;;;;;0.00;0.00;;;12.60;68.90;;;;;;5042242;28;20053;-66
2023/10/18 13:21:27;;;;;;;0.00;0.00;;;12.60;68.00;;;;;;5050265;28;20048;-66
2023/10/18 13:23:56;;;;;;;0.10;0.10;;;12.70;68.40;;;;;;5049155;28;20057;-66
2023/10/18 13:26:27;;;;;;;0.10;0.10;;;12.80;68.60;;;;;;5047673;28;20401;-66
2023/10/18 13:28:59;;;;;;;0.15;0.15;;;12.80;69.10;;;;;;5038296;28;20053;-66
2023/10/18 13:31:32;;;;;;;0.10;0.10;;;12.80;69.40;;;;;;5037072;28;20081;-66
2023/10/18 13:33:58;;;;;;;0.00;0.00;;;12.80;69.90;;;;;;5030456;28;20053;-66
2023/10/18 13:36:24;;;;;;;0.00;0.00;;;12.90;69.80;;;;;;5037170;28;20064;-66
2023/10/18 13:38:50;;;;;;;0.10;0.10;;;12.80;69.60;;;;;;5050318;28;20087;-66
2023/10/18 13:41:17;;;;;;;0.00;0.00;;;12.70;69.20;;;;;;5050005;28;20531;-66
2023/10/18 13:43:43;;;;;;;0.52;0.40;;;12.70;69.50;;;;;;5032995;28;20524;-66
2023/10/18 13:46:17;;;;;;;0.00;0.00;;;12.60;68.40;;;;;;5039304;28;20045;-66
2023/10/18 13:48:43;;;;;;;0.00;0.00;;;12.60;69.30;;;;;;5050218;28;20096;-66
2023/10/18 13:51:10;;;;;;;0.08;0.05;;;12.60;69.50;;;;;;5038702;28;20771;-66
2023/10/18 13:53:36;;;;;;;0.00;0.00;;;12.60;69.90;;;;;;5030849;28;20061;-65
2023/10/18 13:56:02;;;;;;;0.00;0.00;;;12.60;70.10;;;;;;5032615;28;20459;-65
2023/10/18 13:58:31;;;;;;;0.00;0.00;;;12.60;69.50;;;;;;5037929;28;20624;-65
2023/10/18 14:00:58;;;;;;;0.10;0.10;;;12.60;70.30;;;;;;5041307;28;20041;-65